createdAt,value
2022-12-14T00:01:48.709Z,97288.28
2022-12-14T00:04:37.025Z,97290.97
2022-12-14T00:07:26.535Z,97293.47
2022-12-14T00:10:14.722Z,97291.47
2022-12-14T00:13:03.269Z,97297.41
2022-12-14T00:15:51.331Z,97282.59
2022-12-14T00:18:39.568Z,97279.09
2022-12-14T00:21:28.257Z,97278.16
2022-12-14T00:24:17.843Z,97276.38
2022-12-14T00:27:05.492Z,97283.16
2022-12-14T00:29:53.151Z,97278.72
2022-12-14T00:32:42.098Z,97266.50
2022-12-14T00:35:30.181Z,97273.19
2022-12-14T00:38:18.169Z,97264.69
2022-12-14T00:41:08.356Z,97261.16
2022-12-14T00:43:56.644Z,97265.41
2022-12-14T00:46:44.499Z,97261.91
2022-12-14T00:49:32.634Z,97248.03
2022-12-14T00:52:20.734Z,97236.72
2022-12-14T00:55:09.475Z,97231.53
2022-12-14T00:57:59.025Z,97237.66
2022-12-14T01:00:47.520Z,97231.53
2022-12-14T01:03:35.902Z,97238.41
2022-12-14T01:06:24.810Z,97230.72
2022-12-14T01:09:12.809Z,97234.88
2022-12-14T01:12:00.724Z,97251.38
2022-12-14T01:14:50.525Z,97254.13
2022-12-14T01:17:38.581Z,97252.28
2022-12-14T01:20:26.755Z,97264.50
2022-12-14T01:23:15.679Z,97255.78
2022-12-14T01:26:03.396Z,97264.31
2022-12-14T01:28:56.268Z,97260.81
2022-12-14T01:31:48.550Z,97264.50
2022-12-14T01:34:36.734Z,97270.50
2022-12-14T01:37:24.881Z,97271.00
2022-12-14T01:40:13.355Z,97279.88
2022-12-14T01:43:01.392Z,97266.16
2022-12-14T01:45:49.517Z,97253.97
2022-12-14T01:48:39.069Z,97245.44
2022-12-14T01:51:30.164Z,97228.22
2022-12-14T01:54:18.408Z,97227.28
2022-12-14T01:57:06.666Z,97229.88
2022-12-14T02:00:00.935Z,97221.34
2022-12-14T02:02:56.212Z,97234.31
2022-12-14T02:05:49.744Z,97228.94
2022-12-14T02:08:39.591Z,97221.34
2022-12-14T02:11:47.785Z,97214.31
2022-12-14T02:14:36.163Z,97214.31
2022-12-14T02:17:24.195Z,97216.91
2022-12-14T02:20:14.084Z,97217.59
2022-12-14T02:23:37.149Z,97209.06
2022-12-14T02:26:55.172Z,97208.13
2022-12-14T02:30:00.645Z,97223.50
2022-12-14T02:33:12.876Z,97223.41
2022-12-14T02:36:07.875Z,97221.66
2022-12-14T02:39:05.202Z,97203.59
2022-12-14T02:42:03.464Z,97206.19
2022-12-14T02:44:59.984Z,97196.53
2022-12-14T02:47:55.308Z,97181.00
2022-12-14T02:50:50.495Z,97165.16
2022-12-14T02:53:43.956Z,97161.75
2022-12-14T02:56:37.840Z,97161.66
2022-12-14T02:59:26.668Z,97157.22
2022-12-14T03:02:16.655Z,97154.53
2022-12-14T03:05:05.065Z,97148.53
2022-12-14T03:07:56.786Z,97147.59
2022-12-14T03:10:49.749Z,97144.81
2022-12-14T03:13:42.972Z,97136.19
2022-12-14T03:16:33.857Z,97137.03
2022-12-14T03:19:27.589Z,97134.34
2022-12-14T03:22:21.722Z,97136.94
2022-12-14T03:25:20.519Z,97124.69
2022-12-14T03:28:14.693Z,97125.34
2022-12-14T03:31:08.051Z,97109.78
2022-12-14T03:33:58.083Z,97117.75
2022-12-14T03:36:51.467Z,97108.75
2022-12-14T03:39:42.498Z,97107.28
2022-12-14T03:42:38.885Z,97101.25
2022-12-14T03:45:35.733Z,97098.66
2022-12-14T03:48:31.798Z,97102.94
2022-12-14T03:51:27.298Z,97094.13
2022-12-14T03:54:21.877Z,97089.91
2022-12-14T03:57:16.338Z,97086.38
2022-12-14T04:00:09.115Z,97079.53
2022-12-14T04:03:03.557Z,97074.97
2022-12-14T04:05:59.344Z,97081.00
2022-12-14T04:08:54.036Z,97081.00
2022-12-14T04:12:06.123Z,97086.19
2022-12-14T04:15:30.390Z,97088.13
2022-12-14T04:18:40.668Z,97079.53
2022-12-14T04:21:38.559Z,97076.38
2022-12-14T04:24:50.370Z,97071.84
2022-12-14T04:27:45.403Z,97074.91
2022-12-14T04:30:39.158Z,97069.72
2022-12-14T04:33:47.897Z,97069.91
2022-12-14T04:36:42.103Z,97068.44
2022-12-14T04:39:37.355Z,97059.47
2022-12-14T04:42:30.007Z,97056.13
2022-12-14T04:45:24.824Z,97050.00
2022-12-14T04:48:24.222Z,97044.81
2022-12-14T04:51:17.333Z,97045.66
2022-12-14T04:54:12.202Z,97042.78
2022-12-14T04:57:12.195Z,97032.16
2022-12-14T05:00:05.780Z,97033.28
2022-12-14T05:03:26.245Z,97026.44
2022-12-14T05:06:25.876Z,97017.81
2022-12-14T05:09:23.666Z,97013.56
2022-12-14T05:12:21.199Z,97013.38
2022-12-14T05:15:14.375Z,97013.47
2022-12-14T05:18:06.058Z,97003.31
2022-12-14T05:20:56.512Z,97000.91
2022-12-14T05:23:44.324Z,97000.91
2022-12-14T05:26:33.929Z,96994.06
2022-12-14T05:29:22.074Z,96983.47
2022-12-14T05:32:12.266Z,96988.66
2022-12-14T05:35:01.731Z,96982.84
2022-12-14T05:37:49.885Z,96988.66
2022-12-14T05:40:37.861Z,96978.28
2022-12-14T05:43:26.417Z,96966.84
2022-12-14T05:46:16.520Z,96967.75
2022-12-14T05:49:04.659Z,96966.09
2022-12-14T05:51:53.732Z,96953.03
2022-12-14T05:54:41.419Z,96960.06
2022-12-14T05:57:29.403Z,96969.25
2022-12-14T06:00:21.749Z,96968.38
2022-12-14T06:03:09.796Z,96971.91
2022-12-14T06:06:03.143Z,96969.03
2022-12-14T06:08:53.232Z,96966.25
2022-12-14T06:11:42.816Z,96956.81
2022-12-14T06:14:30.932Z,96961.06
2022-12-14T06:17:18.699Z,96965.13
2022-12-14T06:20:07.774Z,96963.25
2022-12-14T06:22:56.339Z,96952.88
2022-12-14T06:25:45.744Z,96954.38
2022-12-14T06:28:33.519Z,96954.38
2022-12-14T06:31:23.099Z,96945.66
2022-12-14T06:34:12.219Z,96945.47
2022-12-14T06:37:00.526Z,96937.50
2022-12-14T06:39:54.463Z,96939.91
2022-12-14T06:42:44.459Z,96922.47
2022-12-14T06:45:32.736Z,96917.06
2022-12-14T06:48:20.647Z,96928.19
2022-12-14T06:51:09.238Z,96938.47
2022-12-14T06:53:59.029Z,96940.97
2022-12-14T06:56:48.346Z,96930.41
2022-12-14T06:59:37.744Z,96945.00
2022-12-14T07:02:25.856Z,96944.81
2022-12-14T07:05:14.278Z,96933.50
2022-12-14T07:08:02.303Z,96931.66
2022-12-14T07:10:55.285Z,96921.06
2022-12-14T07:13:48.804Z,96907.06
2022-12-14T07:16:38.705Z,96897.44
2022-12-14T07:19:27.934Z,96896.41
2022-12-14T07:22:16.376Z,96897.88
2022-12-14T07:25:04.357Z,96897.88
2022-12-14T07:27:53.485Z,96890.81
2022-12-14T07:30:41.654Z,96894.13
2022-12-14T07:33:31.440Z,96892.25
2022-12-14T07:36:21.089Z,96884.28
2022-12-14T07:39:11.278Z,96886.66
2022-12-14T07:41:59.454Z,96895.19
2022-12-14T07:44:47.544Z,96910.56
2022-12-14T07:47:35.608Z,96914.59
2022-12-14T07:50:25.118Z,96902.47
2022-12-14T07:53:13.258Z,96909.19
2022-12-14T07:56:04.716Z,96902.88
2022-12-14T07:58:52.889Z,96903.50
2022-12-14T08:01:42.742Z,96899.75
2022-12-14T08:04:31.028Z,96896.13
2022-12-14T08:07:20.399Z,96907.22
2022-12-14T08:10:09.244Z,96913.88
2022-12-14T08:12:57.265Z,96892.91
2022-12-14T08:15:45.412Z,96865.91
2022-12-14T08:18:34.190Z,96859.47
2022-12-14T08:21:23.214Z,96858.53
2022-12-14T08:24:14.992Z,96860.91
2022-12-14T08:27:02.977Z,96858.00
2022-12-14T08:30:00.017Z,96840.44
2022-12-14T08:32:48.164Z,96847.19
2022-12-14T08:35:37.378Z,96820.91
2022-12-14T08:38:25.013Z,96806.75
2022-12-14T08:41:15.529Z,96793.53
2022-12-14T08:44:04.725Z,96794.88
2022-12-14T08:46:52.579Z,96781.66
2022-12-14T08:49:40.555Z,96781.34
2022-12-14T08:52:28.818Z,96783.50
2022-12-14T08:55:21.143Z,96779.63
2022-12-14T08:58:14.936Z,96795.41
2022-12-14T09:01:04.578Z,96792.56
2022-12-14T09:03:52.956Z,96787.75
2022-12-14T09:06:41.389Z,96785.53
2022-12-14T09:09:29.055Z,96790.53
2022-12-14T09:12:17.176Z,96786.03
2022-12-14T09:15:07.889Z,96771.16
2022-12-14T09:17:56.385Z,96765.72
2022-12-14T09:20:45.545Z,96782.28
2022-12-14T09:23:38.208Z,96776.72
2022-12-14T09:26:26.445Z,96760.78
2022-12-14T09:29:16.072Z,96752.84
2022-12-14T09:32:05.936Z,96745.78
2022-12-14T09:34:54.038Z,96752.28
2022-12-14T09:37:42.009Z,96759.84
2022-12-14T09:40:32.474Z,96754.09
2022-12-14T09:43:36.882Z,96755.16
2022-12-14T09:46:36.609Z,96771.09
2022-12-14T09:49:31.449Z,96762.34
2022-12-14T09:52:24.803Z,96765.69
2022-12-14T09:55:18.379Z,96761.56
2022-12-14T09:58:07.736Z,96764.94
2022-12-14T10:01:04.206Z,96772.41
2022-12-14T10:04:03.019Z,96784.16
2022-12-14T10:07:00.834Z,96783.03
2022-12-14T10:09:55.745Z,96782.03
2022-12-14T10:12:58.605Z,96784.50
2022-12-14T10:15:58.222Z,96780.53
2022-12-14T10:19:02.882Z,96779.94
2022-12-14T10:21:55.732Z,96767.66
2022-12-14T10:24:48.361Z,96741.09
2022-12-14T10:27:54.184Z,96737.41
2022-12-14T10:30:45.747Z,96736.91
2022-12-14T10:33:34.262Z,96731.69
2022-12-14T10:36:28.940Z,96735.16
2022-12-14T10:39:27.557Z,96727.34
2022-12-14T10:42:24.112Z,96720.41
2022-12-14T10:45:42.359Z,96726.09
2022-12-14T10:48:41.981Z,96706.69
2022-12-14T10:51:38.369Z,96682.34
2022-12-14T10:54:33.824Z,96689.78
2022-12-14T10:57:25.050Z,96694.53
2022-12-14T11:00:25.444Z,96690.03
2022-12-14T11:03:16.717Z,96689.69
2022-12-14T11:06:13.580Z,96684.97
2022-12-14T11:09:01.429Z,96690.25
2022-12-14T11:11:56.077Z,96688.47
2022-12-14T11:15:00.003Z,96681.59
2022-12-14T11:18:05.430Z,96692.03
2022-12-14T11:20:54.869Z,96675.94
2022-12-14T11:23:45.197Z,96677.34
2022-12-14T11:26:40.119Z,96672.84
2022-12-14T11:29:41.169Z,96657.22
2022-12-14T11:32:30.894Z,96661.47
2022-12-14T11:35:21.242Z,96660.06
2022-12-14T11:38:17.510Z,96653.19
2022-12-14T11:41:11.419Z,96658.75
2022-12-14T11:44:06.008Z,96664.75
2022-12-14T11:47:06.718Z,96665.41
2022-12-14T11:49:56.782Z,96672.16
2022-12-14T11:52:44.959Z,96673.00
2022-12-14T11:55:34.685Z,96665.63
2022-12-14T11:58:26.586Z,96658.13
2022-12-14T12:01:17.314Z,96659.41
2022-12-14T12:04:13.457Z,96667.44
2022-12-14T12:07:12.393Z,96672.16
2022-12-14T12:10:09.421Z,96661.50
2022-12-14T12:13:02.176Z,96670.50
2022-12-14T12:16:16.128Z,96663.13
2022-12-14T12:19:12.379Z,96657.47
2022-12-14T12:22:02.903Z,96650.34
2022-12-14T12:28:18.064Z,96649.63
2022-12-14T12:31:12.687Z,96653.91
2022-12-14T12:34:03.929Z,96648.13
2022-12-14T12:37:24.818Z,96646.41
2022-12-14T12:40:11.543Z,96653.03
2022-12-14T12:43:04.733Z,96644.84
2022-12-14T12:45:57.645Z,96640.19
2022-12-14T12:48:50.760Z,96630.13
2022-12-14T12:51:46.872Z,96631.41
2022-12-14T12:54:41.161Z,96627.28
2022-12-14T12:57:35.861Z,96624.13
2022-12-14T13:00:26.367Z,96634.47
2022-12-14T13:03:23.722Z,96636.69
2022-12-14T13:06:29.798Z,96636.69
2022-12-14T13:09:26.803Z,96643.31
2022-12-14T13:12:25.947Z,96650.63
2022-12-14T13:15:31.015Z,96648.84
2022-12-14T13:18:49.144Z,96638.97
2022-12-14T13:21:35.759Z,96643.25
2022-12-14T13:24:24.755Z,96645.84
2022-12-14T13:27:50.110Z,96641.44
2022-12-14T13:30:49.749Z,96640.91
2022-12-14T13:33:51.100Z,96641.31
2022-12-14T13:37:01.313Z,96639.41
2022-12-14T13:40:20.107Z,96642.28
2022-12-14T13:43:25.077Z,96635.28
2022-12-14T13:46:20.081Z,96645.72
2022-12-14T13:49:19.252Z,96646.41
2022-12-14T13:52:07.763Z,96656.28
2022-12-14T13:54:56.223Z,96669.47
2022-12-14T13:57:44.049Z,96666.00
2022-12-14T14:01:02.349Z,96661.19
2022-12-14T14:03:53.116Z,96657.84
2022-12-14T14:06:42.725Z,96661.31
2022-12-14T14:09:59.769Z,96656.72
2022-12-14T14:12:47.850Z,96656.72
2022-12-14T14:19:06.036Z,96664.66
2022-12-14T14:22:22.893Z,96675.09
2022-12-14T14:25:38.735Z,96666.59
2022-12-14T14:28:31.373Z,96671.09
2022-12-14T14:31:19.975Z,96671.22
2022-12-14T14:34:21.921Z,96676.56
2022-12-14T14:37:31.657Z,96680.81
2022-12-14T14:40:58.346Z,96678.34
2022-12-14T14:43:40.358Z,96674.22
2022-12-14T14:46:38.110Z,96670.22
2022-12-14T14:49:32.496Z,96670.34
2022-12-14T14:52:46.757Z,96668.09
2022-12-14T14:56:03.611Z,96674.97
2022-12-14T14:58:51.575Z,96684.97
2022-12-14T15:02:00.737Z,96690.41
2022-12-14T15:04:57.061Z,96691.34
2022-12-14T15:07:45.256Z,96693.81
2022-12-14T15:10:38.372Z,96698.47
2022-12-14T15:13:27.481Z,96712.47
2022-12-14T15:16:24.571Z,96713.66
2022-12-14T15:19:38.571Z,96719.94
2022-12-14T15:22:30.913Z,96725.53
2022-12-14T15:25:24.601Z,96723.88
2022-12-14T15:28:23.913Z,96722.47
2022-12-14T15:31:11.851Z,96721.03
2022-12-14T15:34:01.325Z,96731.63
2022-12-14T15:36:50.632Z,96723.44
2022-12-14T15:39:43.635Z,96729.72
2022-12-14T15:42:31.403Z,96725.09
2022-12-14T15:45:23.347Z,96726.19
2022-12-14T15:48:15.402Z,96747.81
2022-12-14T15:51:05.587Z,96743.56
2022-12-14T15:53:56.239Z,96746.19
2022-12-14T15:56:47.690Z,96750.56
2022-12-14T15:59:37.793Z,96756.59
2022-12-14T16:02:30.308Z,96751.41
2022-12-14T16:05:21.566Z,96754.97
2022-12-14T16:08:11.700Z,96760.16
2022-12-14T16:11:02.468Z,96762.06
2022-12-14T16:13:52.126Z,96759.44
2022-12-14T16:16:40.198Z,96753.56
2022-12-14T16:19:45.051Z,96755.44
2022-12-14T16:22:41.978Z,96759.00
2022-12-14T16:25:31.663Z,96760.88
2022-12-14T16:28:27.336Z,96761.00
2022-12-14T16:31:21.249Z,96768.81
2022-12-14T16:34:14.249Z,96774.28
2022-12-14T16:40:26.036Z,96784.09
2022-12-14T16:43:33.742Z,96795.47
2022-12-14T16:46:23.728Z,96787.66
2022-12-14T16:49:32.585Z,96792.84
2022-12-14T16:52:24.007Z,96797.22
2022-12-14T16:55:14.945Z,96787.88
2022-12-14T16:58:03.784Z,96792.28
2022-12-14T17:00:59.899Z,96791.56
2022-12-14T17:04:01.307Z,96797.50
2022-12-14T17:06:52.041Z,96803.75
2022-12-14T17:09:40.198Z,96810.63
2022-12-14T17:12:28.512Z,96822.69
2022-12-14T17:15:17.764Z,96834.19
2022-12-14T17:18:08.243Z,96831.47
2022-12-14T17:20:57.904Z,96838.31
2022-12-14T17:23:46.922Z,96839.28
2022-12-14T17:26:34.910Z,96846.25
2022-12-14T17:29:25.650Z,96845.41
2022-12-14T17:32:16.252Z,96854.19
2022-12-14T17:35:05.821Z,96847.31
2022-12-14T17:37:55.381Z,96846.59
2022-12-14T17:40:44.677Z,96850.97
2022-12-14T17:43:33.147Z,96853.69
2022-12-14T17:46:22.203Z,96860.69
2022-12-14T17:49:13.232Z,96873.84
2022-12-14T17:52:01.699Z,96877.34
2022-12-14T17:54:51.013Z,96883.53
2022-12-14T17:57:39.086Z,96886.25
2022-12-14T18:00:46.228Z,96886.34
2022-12-14T18:03:37.116Z,96894.16
2022-12-14T18:06:25.034Z,96895.13
2022-12-14T18:09:13.099Z,96898.69
2022-12-14T18:12:24.307Z,96904.81
2022-12-14T18:15:17.124Z,96912.63
2022-12-14T18:18:05.602Z,96904.94
2022-12-14T18:20:55.350Z,96907.66
2022-12-14T18:23:47.672Z,96897.22
2022-12-14T18:26:37.976Z,96892.03
2022-12-14T18:29:27.464Z,96901.75
2022-12-14T18:32:15.653Z,96902.66
2022-12-14T18:35:03.614Z,96897.47
2022-12-14T18:37:52.679Z,96899.25
2022-12-14T18:40:43.851Z,96894.16
2022-12-14T18:43:43.428Z,96902.88
2022-12-14T18:46:33.307Z,96899.38
2022-12-14T18:49:21.437Z,96904.69
2022-12-14T18:52:10.867Z,96910.00
2022-12-14T18:55:01.637Z,96922.06
2022-12-14T18:57:52.404Z,96925.63
2022-12-14T19:00:40.953Z,96929.16
2022-12-14T19:03:33.369Z,96930.00
2022-12-14T19:09:31.973Z,96936.97
2022-12-14T19:12:19.649Z,96940.63
2022-12-14T19:15:09.175Z,96948.44
2022-12-14T19:17:59.105Z,96952.81
2022-12-14T19:20:49.451Z,96952.09
2022-12-14T19:23:37.776Z,96958.38
2022-12-14T19:26:30.987Z,96955.88
2022-12-14T19:29:18.698Z,96954.19
2022-12-14T19:32:06.980Z,96965.56
2022-12-14T19:34:55.233Z,96975.25
2022-12-14T19:37:44.650Z,96972.88
2022-12-14T19:40:32.631Z,96963.41
2022-12-14T19:43:20.933Z,96963.63
2022-12-14T19:46:10.047Z,96968.25
2022-12-14T19:48:59.865Z,96966.56
2022-12-14T19:51:52.722Z,96966.88
2022-12-14T19:54:46.220Z,96970.44
2022-12-14T19:57:33.913Z,96958.72
2022-12-14T20:00:22.072Z,96961.44
2022-12-14T20:03:10.232Z,96973.69
2022-12-14T20:06:00.152Z,96969.56
2022-12-14T20:08:50.140Z,96978.53
2022-12-14T20:11:39.221Z,96986.44
2022-12-14T20:14:27.198Z,96977.19
2022-12-14T20:17:15.204Z,96987.78
2022-12-14T20:20:03.406Z,96988.03
2022-12-14T20:22:51.486Z,96994.16
2022-12-14T20:25:39.328Z,97006.47
2022-12-14T20:28:28.867Z,97021.44
2022-12-14T20:31:17.520Z,97027.69
2022-12-14T20:34:06.976Z,97020.81
2022-12-14T20:36:59.298Z,97020.81
2022-12-14T20:39:47.170Z,97019.16
2022-12-14T20:42:37.688Z,97016.78
2022-12-14T20:45:27.342Z,97028.13
2022-12-14T20:48:15.765Z,97029.03
2022-12-14T20:51:04.781Z,97033.53
2022-12-14T20:53:52.908Z,97035.19
2022-12-14T20:56:42.032Z,97039.69
2022-12-14T20:59:30.093Z,97046.63
2022-12-14T21:02:23.101Z,97057.16
2022-12-14T21:05:11.010Z,97051.19
2022-12-14T21:07:58.785Z,97051.19
2022-12-14T21:10:46.997Z,97058.31
2022-12-14T21:13:35.368Z,97060.25
2022-12-14T21:16:23.446Z,97068.91
2022-12-14T21:19:15.819Z,97061.09
2022-12-14T21:22:03.766Z,97067.84
2022-12-14T21:25:07.818Z,97060.91
2022-12-14T21:27:56.112Z,97071.09
2022-12-14T21:30:44.277Z,97072.84
2022-12-14T21:33:32.991Z,97079.09
2022-12-14T21:36:22.571Z,97074.81
2022-12-14T21:39:13.096Z,97084.50
2022-12-14T21:42:15.406Z,97088.03
2022-12-14T21:45:05.193Z,97094.91
2022-12-14T21:47:53.327Z,97095.00
2022-12-14T21:50:43.781Z,97100.09
2022-12-14T21:53:35.467Z,97092.50
2022-12-14T21:56:46.149Z,97093.44
2022-12-14T21:59:36.054Z,97091.78
2022-12-14T22:02:25.816Z,97091.78
2022-12-14T22:05:13.729Z,97088.22
2022-12-14T22:08:03.600Z,97090.94
2022-12-14T22:10:53.050Z,97089.16
2022-12-14T22:13:41.964Z,97093.31
2022-12-14T22:16:31.140Z,97092.31
2022-12-14T22:19:21.125Z,97092.19
2022-12-14T22:22:13.990Z,97099.06
2022-12-14T22:25:01.839Z,97108.59
2022-12-14T22:27:51.196Z,97107.69
2022-12-14T22:30:42.299Z,97096.34
2022-12-14T22:33:31.531Z,97092.09
2022-12-14T22:36:20.329Z,97107.59
2022-12-14T22:39:08.319Z,97106.84
2022-12-14T22:41:56.551Z,97111.22
2022-12-14T22:44:45.964Z,97112.16
2022-12-14T22:47:34.662Z,97107.91
2022-12-14T22:50:22.527Z,97114.84
2022-12-14T22:53:10.596Z,97126.09
2022-12-14T22:56:02.408Z,97126.09
2022-12-14T22:58:52.856Z,97126.91
2022-12-14T23:01:42.942Z,97143.34
2022-12-14T23:04:38.569Z,97141.59
2022-12-14T23:07:26.574Z,97141.69
2022-12-14T23:10:31.866Z,97135.66
2022-12-14T23:13:40.485Z,97141.69
2022-12-14T23:16:45.659Z,97149.50
2022-12-14T23:19:58.724Z,97144.41
2022-12-14T23:23:08.227Z,97141.16
2022-12-14T23:26:13.941Z,97132.53
2022-12-14T23:29:19.546Z,97133.38
2022-12-14T23:32:24.572Z,97141.16
2022-12-14T23:35:34.182Z,97139.41
2022-12-14T23:38:39.323Z,97143.75
2022-12-14T23:41:44.439Z,97144.72
2022-12-14T23:44:49.862Z,97144.81
2022-12-14T23:47:55.054Z,97142.31
2022-12-14T23:51:02.082Z,97152.91
2022-12-14T23:54:07.155Z,97155.63
2022-12-14T23:57:12.354Z,97152.38
